Rumsey, KY (42371)

1:44 PM CDT on May 28, 2015 (GMT -0500)
West side of Oak Hill Cemetery-dchsr | | Change Station
CLOSE
Current Station
Personal Weather Station
Location: Livermore, KY
Elevation: 420 ft
Nearby Weather Stations

Elev 420 ft 37.49 °N, 87.13 °W | Updated 5 seconds ago

Partly Cloudy
Partly Cloudy
83.2 °F
Feels Like 85 °F
N
0.0
Wind Variable Wind from SSE
Gusts 4.0 mph

Today
High -- | Low -- °F
--% Chance of Precip.
Yesterday
High -- | Low -- °F
Precip. -- in
5:31 AM 8:01 PM
Waxing Gibbous, 77% visible
Pressure 30.17 in
Visibility 10.0 miles
Clouds Scattered Clouds 3600 ft
Mostly Cloudy 4800 ft
Mostly Cloudy 5500 ft
Heat Index 85 °F
Dew Point 66 °F
Humidity 56%
Rainfall 0.00 in
Snow Depth Not available.
UV 6 out of 12
Pollen 7.80 out of 12
Air Quality Not available.
Flu Activity Sporadic
METAR K2I0 281835Z AUTO 17009KT 10SM SCT036 BKN048 BKN055 28/18 A3017 RMK AO2 T02800184

More Conditions Fewer Conditions

Pressure 30.17 in
Visibility 10.0 miles
Clouds Scattered Clouds 3600 ft
Mostly Cloudy 4800 ft
Mostly Cloudy 5500 ft
Heat Index 85 °F
Dew Point 66 °F
Humidity 56%
Rainfall 0.00 in
Snow Depth Not available.
UV 6 out of 12
Pollen 7.80 out of 12
Air Quality Not available.
Flu Activity Sporadic
METAR K2I0 281835Z AUTO 17009KT 10SM SCT036 BKN048 BKN055 28/18 A3017 RMK AO2 T02800184

More Conditions Fewer Conditions

10-Day Weather Forecast

Almanac

Astronomy

May. 28, 2015 Rise Set
Actual Time
Civil Twilight
Nautical Twilight
Astronomical Twilight
Moon
Length of Visible Light
Length of Day
Tomorrow will be .
, % of the Moon is Illuminated

Today's Extremes

State Highs State Lows

Community

WunderPhotos

Upload Photos

1,825,015 photos uploaded!

WunderBlogs® & News

Nearby

Air Quality

  Air Quality AQ Index Pollutant
Not available.

Snow Depth

Station Depth Elevation

Earthquake Activity

City Distance Mag. Time & Date
Minimum magnitude displayed is 2.5.

Coastal Water Temperatures

Place Temperature

Stations

Nearby Weather Stations

Station Location Temp. Windchill Dew Point Humidity Wind Precip. Elev Updated Type